createdAt,value
2023-02-19T00:01:28.256Z,7.64
2023-02-19T00:03:59.088Z,7.66
2023-02-19T00:06:27.759Z,7.73
2023-02-19T00:08:54.915Z,7.80
2023-02-19T00:11:26.116Z,7.86
2023-02-19T00:13:55.524Z,7.92
2023-02-19T00:16:27.790Z,7.94
2023-02-19T00:18:56.370Z,7.94
2023-02-19T00:21:23.943Z,7.94
2023-02-19T00:23:52.870Z,7.93
2023-02-19T00:26:19.712Z,7.93
2023-02-19T00:28:48.537Z,7.94
2023-02-19T00:31:22.902Z,8.00
2023-02-19T00:33:52.644Z,8.08
2023-02-19T00:36:20.188Z,8.13
2023-02-19T00:38:47.024Z,8.18
2023-02-19T00:41:21.730Z,8.22
2023-02-19T00:44:03.090Z,8.24
2023-02-19T00:46:35.844Z,8.24
2023-02-19T00:49:04.532Z,8.23
2023-02-19T00:51:34.979Z,8.25
2023-02-19T00:54:02.150Z,8.29
2023-02-19T00:56:28.908Z,8.34
2023-02-19T00:58:56.228Z,8.36
2023-02-19T01:01:23.520Z,8.38
2023-02-19T01:03:50.964Z,8.36
2023-02-19T01:06:19.908Z,8.33
2023-02-19T01:08:47.321Z,8.33
2023-02-19T01:11:14.818Z,8.33
2023-02-19T01:13:42.864Z,8.33
2023-02-19T01:16:19.194Z,8.34
2023-02-19T01:18:47.935Z,8.41
2023-02-19T01:21:20.183Z,8.45
2023-02-19T01:23:48.317Z,8.47
2023-02-19T01:26:19.925Z,8.50
2023-02-19T01:28:47.139Z,8.50
2023-02-19T01:31:17.938Z,8.49
2023-02-19T01:33:53.910Z,8.47
2023-02-19T01:36:21.256Z,8.44
2023-02-19T01:38:48.712Z,8.48
2023-02-19T01:41:18.381Z,8.53
2023-02-19T01:44:15.917Z,8.59
2023-02-19T01:46:43.864Z,8.63
2023-02-19T01:49:15.863Z,8.66
2023-02-19T01:51:47.583Z,8.66
2023-02-19T01:54:18.060Z,8.64
2023-02-19T01:56:47.758Z,8.61
2023-02-19T01:59:15.354Z,8.59
2023-02-19T02:01:42.367Z,8.55
2023-02-19T02:04:13.332Z,8.54
2023-02-19T02:06:55.973Z,8.56
2023-02-19T02:09:55.953Z,8.60
2023-02-19T02:12:22.657Z,8.58
2023-02-19T02:14:49.382Z,8.55
2023-02-19T02:17:25.267Z,8.55
2023-02-19T02:20:26.325Z,8.56
2023-02-19T02:23:21.549Z,8.55
2023-02-19T02:26:36.385Z,8.52
2023-02-19T02:29:03.211Z,8.51
2023-02-19T02:31:43.496Z,8.52
2023-02-19T02:34:29.907Z,8.57
2023-02-19T02:36:57.542Z,8.59
2023-02-19T02:39:27.433Z,8.60
2023-02-19T02:42:17.084Z,8.62
2023-02-19T02:45:05.236Z,8.61
2023-02-19T02:47:52.899Z,8.58
2023-02-19T02:50:26.270Z,8.54
2023-02-19T02:53:18.465Z,8.51
2023-02-19T02:55:49.760Z,8.48
2023-02-19T02:58:18.514Z,8.48
2023-02-19T03:01:10.471Z,8.51
2023-02-19T03:03:40.088Z,8.55
2023-02-19T03:06:09.476Z,8.58
2023-02-19T03:08:40.758Z,8.58
2023-02-19T03:11:30.629Z,8.56
2023-02-19T03:14:26.276Z,8.54
2023-02-19T03:17:18.827Z,8.51
2023-02-19T03:19:50.104Z,8.50
2023-02-19T03:22:25.981Z,8.50
2023-02-19T03:25:26.463Z,8.54
2023-02-19T03:27:57.696Z,8.59
2023-02-19T03:30:31.633Z,8.61
2023-02-19T03:33:08.269Z,8.62
2023-02-19T03:35:40.297Z,8.64
2023-02-19T03:38:18.797Z,8.66
2023-02-19T03:41:05.399Z,8.66
2023-02-19T03:43:32.775Z,8.65
2023-02-19T03:46:12.014Z,8.66
2023-02-19T03:48:48.909Z,8.68
2023-02-19T03:51:28.706Z,8.69
2023-02-19T03:54:20.446Z,8.71
2023-02-19T03:56:54.754Z,8.69
2023-02-19T03:59:55.992Z,8.67
2023-02-19T04:03:07.851Z,8.63
2023-02-19T04:05:41.299Z,8.57
2023-02-19T04:08:17.357Z,8.57
2023-02-19T04:10:50.071Z,8.64
2023-02-19T04:13:30.472Z,8.70
2023-02-19T04:16:04.762Z,8.73
2023-02-19T04:18:34.473Z,8.73
2023-02-19T04:21:03.731Z,8.74
2023-02-19T04:23:33.046Z,8.76
2023-02-19T04:26:01.411Z,8.76
2023-02-19T04:28:29.349Z,8.76
2023-02-19T04:30:56.196Z,8.77
2023-02-19T04:33:22.959Z,8.80
2023-02-19T04:35:49.708Z,8.84
2023-02-19T04:38:16.395Z,8.87
2023-02-19T04:40:43.138Z,8.89
2023-02-19T04:43:09.897Z,8.87
2023-02-19T04:45:39.718Z,8.85
2023-02-19T04:48:06.462Z,8.82
2023-02-19T04:50:33.300Z,8.78
2023-02-19T04:53:00.038Z,8.79
2023-02-19T04:55:26.724Z,8.84
2023-02-19T04:57:53.422Z,8.88
2023-02-19T05:00:20.357Z,8.91
2023-02-19T05:02:47.111Z,8.93
2023-02-19T05:05:14.157Z,8.92
2023-02-19T05:07:40.834Z,8.90
2023-02-19T05:10:07.941Z,8.88
2023-02-19T05:12:34.656Z,8.87
2023-02-19T05:15:01.340Z,8.86
2023-02-19T05:17:27.888Z,8.89
2023-02-19T05:19:54.531Z,8.91
2023-02-19T05:22:21.285Z,8.92
2023-02-19T05:24:47.936Z,8.92
2023-02-19T05:27:14.630Z,8.89
2023-02-19T05:29:41.381Z,8.87
2023-02-19T05:32:08.082Z,8.85
2023-02-19T05:34:34.730Z,8.83
2023-02-19T05:37:01.368Z,8.83
2023-02-19T05:39:28.104Z,8.86
2023-02-19T05:41:54.814Z,8.88
2023-02-19T05:44:21.518Z,8.91
2023-02-19T05:46:48.259Z,8.91
2023-02-19T05:49:14.995Z,8.89
2023-02-19T05:51:41.616Z,8.87
2023-02-19T05:54:08.266Z,8.82
2023-02-19T05:56:40.324Z,8.76
2023-02-19T05:59:08.534Z,8.70
2023-02-19T06:01:35.682Z,8.61
2023-02-19T06:04:02.830Z,8.56
2023-02-19T06:06:29.969Z,8.56
2023-02-19T06:08:58.769Z,8.56
2023-02-19T06:11:25.724Z,8.54
2023-02-19T06:13:52.447Z,8.52
2023-02-19T06:16:19.771Z,8.51
2023-02-19T06:18:46.752Z,8.50
2023-02-19T06:21:14.932Z,8.49
2023-02-19T06:23:42.287Z,8.48
2023-02-19T06:26:27.186Z,8.47
2023-02-19T06:28:54.259Z,8.47
2023-02-19T06:31:22.840Z,8.49
2023-02-19T06:33:50.941Z,8.49
2023-02-19T06:36:20.451Z,8.50
2023-02-19T06:38:47.817Z,8.46
2023-02-19T06:41:14.914Z,8.43
2023-02-19T06:43:42.947Z,8.40
2023-02-19T06:46:12.050Z,8.37
2023-02-19T06:48:40.887Z,8.36
2023-02-19T06:51:08.405Z,8.38
2023-02-19T06:53:35.401Z,8.43
2023-02-19T06:56:05.710Z,8.47
2023-02-19T06:58:36.506Z,8.49
2023-02-19T07:01:03.234Z,8.51
2023-02-19T07:03:30.007Z,8.53
2023-02-19T07:05:59.803Z,8.59
2023-02-19T07:08:28.571Z,8.63
2023-02-19T07:10:58.534Z,8.73
2023-02-19T07:13:29.704Z,8.85
2023-02-19T07:16:01.920Z,8.94
2023-02-19T07:18:30.419Z,9.00
2023-02-19T07:21:09.170Z,9.01
2023-02-19T07:23:36.534Z,9.05
2023-02-19T07:26:04.282Z,9.09
2023-02-19T07:28:31.150Z,9.11
2023-02-19T07:31:02.759Z,9.12
2023-02-19T07:33:30.167Z,9.17
2023-02-19T07:35:57.711Z,9.23
2023-02-19T07:38:26.307Z,9.29
2023-02-19T07:40:57.614Z,9.32
2023-02-19T07:43:25.785Z,9.34
2023-02-19T07:45:52.809Z,9.35
2023-02-19T07:48:20.515Z,9.37
2023-02-19T07:50:54.993Z,9.39
2023-02-19T07:53:22.618Z,9.41
2023-02-19T07:55:49.819Z,9.45
2023-02-19T07:58:17.038Z,9.52
2023-02-19T08:00:43.853Z,9.60
2023-02-19T08:03:11.410Z,9.66
2023-02-19T08:05:40.174Z,9.70
2023-02-19T08:08:12.065Z,9.73
2023-02-19T08:10:57.950Z,9.75
2023-02-19T08:13:26.648Z,9.78
2023-02-19T08:16:20.017Z,9.78
2023-02-19T08:18:49.463Z,9.75
2023-02-19T08:21:18.410Z,9.75
2023-02-19T08:23:46.615Z,9.79
2023-02-19T08:26:13.988Z,9.86
2023-02-19T08:28:41.374Z,9.93
2023-02-19T08:31:11.417Z,9.97
2023-02-19T08:33:38.760Z,10.02
2023-02-19T08:36:07.834Z,10.05
2023-02-19T08:38:36.031Z,10.07
2023-02-19T08:41:07.714Z,10.09
2023-02-19T08:43:34.808Z,10.10
2023-02-19T08:46:01.647Z,10.12
2023-02-19T08:48:28.999Z,10.14
2023-02-19T08:50:58.341Z,10.18
2023-02-19T08:53:26.149Z,10.25
2023-02-19T08:55:53.638Z,10.33
2023-02-19T08:58:20.472Z,10.38
2023-02-19T09:00:47.695Z,10.44
2023-02-19T09:03:14.643Z,10.48
2023-02-19T09:05:42.015Z,10.49
2023-02-19T09:08:09.279Z,10.51
2023-02-19T09:10:36.020Z,10.53
2023-02-19T09:13:02.979Z,10.52
2023-02-19T09:15:29.896Z,10.53
2023-02-19T09:17:57.217Z,10.57
2023-02-19T09:20:23.978Z,10.62
2023-02-19T09:22:50.821Z,10.67
2023-02-19T09:25:17.685Z,10.71
2023-02-19T09:27:44.404Z,10.76
2023-02-19T09:30:11.547Z,10.81
2023-02-19T09:32:38.458Z,10.83
2023-02-19T09:35:05.399Z,10.85
2023-02-19T09:37:34.021Z,10.85
2023-02-19T09:40:00.922Z,10.83
2023-02-19T09:42:31.568Z,10.84
2023-02-19T09:45:00.987Z,10.87
2023-02-19T09:47:31.403Z,10.91
2023-02-19T09:50:06.641Z,10.94
2023-02-19T09:52:36.931Z,10.98
2023-02-19T09:55:15.032Z,11.02
2023-02-19T09:57:43.717Z,11.02
2023-02-19T10:00:19.233Z,11.02
2023-02-19T10:02:46.062Z,11.08
2023-02-19T10:05:14.615Z,11.12
2023-02-19T10:07:47.936Z,11.14
2023-02-19T10:10:14.697Z,11.14
2023-02-19T10:12:47.672Z,11.12
2023-02-19T10:15:25.328Z,11.15
2023-02-19T10:17:52.120Z,11.22
2023-02-19T10:20:26.763Z,11.28
2023-02-19T10:23:06.129Z,11.34
2023-02-19T10:25:34.922Z,11.39
2023-02-19T10:28:02.707Z,11.47
2023-02-19T10:30:32.203Z,11.59
2023-02-19T10:33:10.211Z,11.69
2023-02-19T10:36:00.478Z,11.76
2023-02-19T10:38:40.516Z,11.84
2023-02-19T10:41:15.560Z,11.87
2023-02-19T10:43:51.105Z,11.89
2023-02-19T10:46:22.571Z,11.95
2023-02-19T10:49:04.988Z,12.02
2023-02-19T10:51:38.222Z,12.08
2023-02-19T10:54:07.139Z,12.10
2023-02-19T10:56:34.210Z,12.15
2023-02-19T10:59:19.322Z,12.24
2023-02-19T11:02:00.876Z,12.33
2023-02-19T11:04:34.033Z,12.42
2023-02-19T11:07:18.287Z,12.54
2023-02-19T11:09:49.714Z,12.61
2023-02-19T11:12:26.984Z,12.66
2023-02-19T11:14:54.503Z,12.66
2023-02-19T11:17:30.352Z,12.69
2023-02-19T11:20:00.252Z,12.74
2023-02-19T11:22:38.313Z,12.77
2023-02-19T11:25:06.968Z,12.80
2023-02-19T11:27:34.314Z,12.83
2023-02-19T11:30:22.742Z,12.85
2023-02-19T11:33:08.341Z,12.84
2023-02-19T11:35:35.044Z,12.87
2023-02-19T11:38:02.326Z,12.91
2023-02-19T11:40:40.692Z,12.93
2023-02-19T11:43:20.414Z,12.91
2023-02-19T11:46:07.192Z,12.91
2023-02-19T11:48:46.310Z,12.89
2023-02-19T11:51:39.103Z,12.89
2023-02-19T11:54:30.385Z,12.94
2023-02-19T12:00:02.480Z,13.08
2023-02-19T12:02:48.266Z,13.13
2023-02-19T12:05:19.688Z,13.20
2023-02-19T12:07:55.496Z,13.28
2023-02-19T12:10:47.817Z,13.39
2023-02-19T12:13:28.563Z,13.48
2023-02-19T12:16:18.241Z,13.53
2023-02-19T12:18:50.725Z,13.59
2023-02-19T12:21:29.883Z,13.67
2023-02-19T12:23:56.614Z,13.72
2023-02-19T12:26:41.740Z,13.81
2023-02-19T12:29:14.359Z,13.88
2023-02-19T12:32:03.052Z,13.88
2023-02-19T12:34:29.906Z,13.88
2023-02-19T12:37:11.621Z,13.94
2023-02-19T12:39:46.030Z,14.00
2023-02-19T12:42:45.990Z,14.04
2023-02-19T12:45:30.006Z,14.09
2023-02-19T12:48:06.784Z,14.12
2023-02-19T12:50:36.517Z,14.15
2023-02-19T12:53:25.225Z,14.23
2023-02-19T12:55:52.924Z,14.29
2023-02-19T12:58:37.936Z,14.29
2023-02-19T13:01:07.577Z,14.27
2023-02-19T13:04:13.454Z,14.27
2023-02-19T13:06:45.664Z,14.28
2023-02-19T13:09:19.842Z,14.30
2023-02-19T13:11:53.428Z,14.32
2023-02-19T13:14:34.298Z,14.34
2023-02-19T13:17:11.433Z,14.34
2023-02-19T13:19:38.695Z,14.36
2023-02-19T13:22:37.042Z,14.35
2023-02-19T13:25:06.898Z,14.31
2023-02-19T13:27:52.032Z,14.28
2023-02-19T13:30:43.349Z,14.23
2023-02-19T13:33:33.217Z,14.22
2023-02-19T13:36:28.442Z,14.20
2023-02-19T13:38:57.450Z,14.19
2023-02-19T13:41:39.474Z,14.18
2023-02-19T13:44:16.496Z,14.14
2023-02-19T13:46:45.724Z,14.12
2023-02-19T13:49:27.743Z,14.15
2023-02-19T13:51:56.202Z,14.17
2023-02-19T13:54:27.222Z,14.18
2023-02-19T13:57:29.430Z,14.15
2023-02-19T14:00:00.227Z,14.11
2023-02-19T14:02:31.361Z,14.06
2023-02-19T14:05:01.217Z,14.02
2023-02-19T14:07:27.934Z,13.99
2023-02-19T14:09:54.971Z,13.98
2023-02-19T14:12:33.409Z,13.97
2023-02-19T14:15:20.017Z,13.99
2023-02-19T14:17:46.812Z,13.94
2023-02-19T14:20:16.408Z,13.91
2023-02-19T14:22:46.230Z,13.89
2023-02-19T14:25:31.392Z,13.87
2023-02-19T14:28:17.401Z,13.85
2023-02-19T14:31:01.266Z,13.82
2023-02-19T14:33:35.829Z,13.80
2023-02-19T14:36:19.083Z,13.77
2023-02-19T14:38:52.078Z,13.75
2023-02-19T14:41:20.481Z,13.73
2023-02-19T14:43:50.732Z,13.75
2023-02-19T14:46:31.812Z,13.77
2023-02-19T14:49:08.112Z,13.76
2023-02-19T14:51:40.391Z,13.76
2023-02-19T14:54:17.588Z,13.74
2023-02-19T14:56:52.707Z,13.73
2023-02-19T14:59:27.417Z,13.71
2023-02-19T15:02:13.761Z,13.66
2023-02-19T15:04:40.704Z,13.60
2023-02-19T15:07:13.437Z,13.52
2023-02-19T15:09:44.990Z,13.45
2023-02-19T15:12:21.843Z,13.39
2023-02-19T15:14:51.141Z,13.33
2023-02-19T15:17:27.244Z,13.27
2023-02-19T15:19:55.715Z,13.22
2023-02-19T15:22:26.081Z,13.16
2023-02-19T15:24:52.831Z,13.11
2023-02-19T15:27:24.741Z,13.07
2023-02-19T15:29:53.739Z,13.06
2023-02-19T15:32:23.677Z,13.03
2023-02-19T15:34:58.732Z,12.99
2023-02-19T15:37:28.900Z,12.94
2023-02-19T15:39:57.825Z,12.88
2023-02-19T15:42:32.403Z,12.83
2023-02-19T15:45:13.791Z,12.77
2023-02-19T15:47:50.203Z,12.75
2023-02-19T15:50:34.641Z,12.74
2023-02-19T15:53:07.391Z,12.73
2023-02-19T15:55:43.765Z,12.72
2023-02-19T15:58:19.606Z,12.68
2023-02-19T16:00:55.986Z,12.64
2023-02-19T16:03:25.037Z,12.59
2023-02-19T16:06:18.200Z,12.56
2023-02-19T16:09:02.108Z,12.52
2023-02-19T16:11:30.996Z,12.46
2023-02-19T16:14:34.853Z,12.42
2023-02-19T16:17:15.633Z,12.37
2023-02-19T16:20:01.878Z,12.32
2023-02-19T16:22:31.461Z,12.26
2023-02-19T16:25:05.057Z,12.23
2023-02-19T16:27:31.926Z,12.19
2023-02-19T16:30:01.469Z,12.15
2023-02-19T16:32:28.297Z,12.11
2023-02-19T16:34:55.055Z,12.09
2023-02-19T16:37:30.571Z,12.06
2023-02-19T16:40:09.459Z,12.02
2023-02-19T16:42:38.165Z,12.00
2023-02-19T16:45:08.542Z,12.00
2023-02-19T16:47:40.565Z,12.00
2023-02-19T16:50:14.836Z,11.99
2023-02-19T16:53:03.108Z,11.99
2023-02-19T16:55:34.814Z,11.99
2023-02-19T16:58:01.607Z,11.97
2023-02-19T17:00:31.157Z,11.93
2023-02-19T17:03:02.993Z,11.89
2023-02-19T17:05:32.642Z,11.84
2023-02-19T17:07:59.368Z,11.79
2023-02-19T17:10:28.071Z,11.74
2023-02-19T17:12:56.100Z,11.70
2023-02-19T17:15:23.514Z,11.67
2023-02-19T17:17:50.249Z,11.63
2023-02-19T17:20:20.697Z,11.58
2023-02-19T17:22:47.473Z,11.54
2023-02-19T17:25:14.340Z,11.50
2023-02-19T17:27:41.334Z,11.50
2023-02-19T17:30:20.454Z,11.53
2023-02-19T17:32:47.137Z,11.53
2023-02-19T17:35:13.872Z,11.52
2023-02-19T17:37:40.612Z,11.51
2023-02-19T17:40:33.253Z,11.45
2023-02-19T17:43:01.217Z,11.39
2023-02-19T17:45:28.247Z,11.36
2023-02-19T17:47:54.999Z,11.33
2023-02-19T17:50:25.615Z,11.27
2023-02-19T17:52:52.660Z,11.19
2023-02-19T17:55:19.460Z,11.10
2023-02-19T17:57:49.762Z,10.95
2023-02-19T18:00:25.197Z,10.87
2023-02-19T18:02:51.924Z,10.85
2023-02-19T18:05:19.193Z,10.84
2023-02-19T18:07:47.462Z,10.83
2023-02-19T18:10:16.392Z,10.80
2023-02-19T18:12:43.298Z,10.74
2023-02-19T18:15:17.350Z,10.65
2023-02-19T18:17:44.565Z,10.59
2023-02-19T18:20:20.670Z,10.56
2023-02-19T18:22:47.721Z,10.51
2023-02-19T18:25:15.852Z,10.47
2023-02-19T18:27:42.783Z,10.43
2023-02-19T18:30:10.257Z,10.39
2023-02-19T18:32:37.498Z,10.35
2023-02-19T18:35:05.308Z,10.33
2023-02-19T18:37:33.794Z,10.32
2023-02-19T18:40:01.200Z,10.33
2023-02-19T18:42:28.726Z,10.32
2023-02-19T18:44:56.149Z,10.32
2023-02-19T18:47:25.428Z,10.29
2023-02-19T18:49:54.759Z,10.29
2023-02-19T18:52:24.860Z,10.27
2023-02-19T18:54:53.571Z,10.24
2023-02-19T18:57:22.315Z,10.21
2023-02-19T18:59:49.210Z,10.20
2023-02-19T19:02:16.184Z,10.17
2023-02-19T19:04:43.415Z,10.14
2023-02-19T19:07:10.834Z,10.12
2023-02-19T19:09:37.625Z,10.12
2023-02-19T19:12:04.803Z,10.11
2023-02-19T19:14:31.560Z,10.08
2023-02-19T19:16:58.286Z,10.06
2023-02-19T19:19:25.295Z,10.04
2023-02-19T19:21:53.871Z,10.02
2023-02-19T19:24:23.060Z,9.97
2023-02-19T19:26:50.830Z,9.95
2023-02-19T19:29:20.144Z,9.92
2023-02-19T19:31:47.089Z,9.93
2023-02-19T19:34:14.757Z,9.95
2023-02-19T19:36:41.650Z,9.96
2023-02-19T19:39:09.651Z,10.00
2023-02-19T19:41:36.965Z,10.04
2023-02-19T19:44:08.148Z,10.07
2023-02-19T19:46:35.197Z,10.06
2023-02-19T19:49:02.081Z,10.06
2023-02-19T19:51:33.828Z,10.10
2023-02-19T19:54:03.129Z,10.15
2023-02-19T19:56:30.702Z,10.19
2023-02-19T19:58:57.393Z,10.22
2023-02-19T20:01:24.185Z,10.24
2023-02-19T20:03:51.272Z,10.28
2023-02-19T20:06:30.780Z,10.29
2023-02-19T20:08:58.311Z,10.31
2023-02-19T20:11:26.809Z,10.35
2023-02-19T20:13:53.820Z,10.42
2023-02-19T20:16:25.387Z,10.48
2023-02-19T20:18:54.479Z,10.52
2023-02-19T20:21:21.380Z,10.56
2023-02-19T20:23:48.213Z,10.60
2023-02-19T20:26:22.042Z,10.61
2023-02-19T20:28:49.065Z,10.62
2023-02-19T20:31:16.040Z,10.63
2023-02-19T20:33:42.886Z,10.63
2023-02-19T20:36:09.802Z,10.65
2023-02-19T20:38:37.001Z,10.65
2023-02-19T20:41:03.957Z,10.63
2023-02-19T20:43:31.113Z,10.61
2023-02-19T20:45:57.896Z,10.62
2023-02-19T20:48:24.560Z,10.65
2023-02-19T20:50:51.446Z,10.68
2023-02-19T20:53:18.177Z,10.69
2023-02-19T20:55:45.124Z,10.71
2023-02-19T20:58:12.106Z,10.71
2023-02-19T21:00:38.766Z,10.71
2023-02-19T21:03:08.959Z,10.71
2023-02-19T21:05:38.646Z,10.71
2023-02-19T21:08:05.883Z,10.73
2023-02-19T21:10:32.682Z,10.73
2023-02-19T21:12:59.472Z,10.73
2023-02-19T21:15:27.825Z,10.72
2023-02-19T21:17:54.495Z,10.71
2023-02-19T21:20:21.268Z,10.72
2023-02-19T21:22:48.141Z,10.75
2023-02-19T21:25:14.969Z,10.79
2023-02-19T21:27:42.113Z,10.80
2023-02-19T21:30:09.335Z,10.82
2023-02-19T21:32:36.072Z,10.83
2023-02-19T21:35:03.008Z,10.83
2023-02-19T21:37:29.959Z,10.82
2023-02-19T21:40:00.698Z,10.81
2023-02-19T21:42:27.594Z,10.81
2023-02-19T21:44:54.503Z,10.79
2023-02-19T21:47:21.241Z,10.75
2023-02-19T21:49:48.150Z,10.73
2023-02-19T21:52:15.179Z,10.72
2023-02-19T21:54:41.986Z,10.71
2023-02-19T21:57:09.542Z,10.71
2023-02-19T21:59:36.335Z,10.74
2023-02-19T22:02:03.354Z,10.75
2023-02-19T22:04:30.118Z,10.74
2023-02-19T22:06:57.637Z,10.76
2023-02-19T22:09:24.681Z,10.76
2023-02-19T22:11:51.717Z,10.73
2023-02-19T22:14:19.491Z,10.73
2023-02-19T22:16:46.985Z,10.71
2023-02-19T22:19:14.937Z,10.70
2023-02-19T22:21:44.553Z,10.69
2023-02-19T22:24:17.247Z,10.71
2023-02-19T22:26:45.800Z,10.75
2023-02-19T22:29:14.564Z,10.79
2023-02-19T22:31:41.840Z,10.82
2023-02-19T22:34:09.321Z,10.83
2023-02-19T22:36:40.339Z,10.84
2023-02-19T22:39:10.440Z,10.85
2023-02-19T22:41:42.844Z,10.83
2023-02-19T22:44:11.416Z,10.82
2023-02-19T22:46:38.279Z,10.81
2023-02-19T22:49:07.050Z,10.80
2023-02-19T22:51:35.646Z,10.79
2023-02-19T22:54:02.756Z,10.79
2023-02-19T22:56:29.603Z,10.80
2023-02-19T22:58:57.412Z,10.84
2023-02-19T23:01:25.156Z,10.86
2023-02-19T23:04:00.207Z,10.88
2023-02-19T23:06:30.804Z,10.89
2023-02-19T23:08:59.320Z,10.90
2023-02-19T23:11:29.684Z,10.90
2023-02-19T23:13:56.914Z,10.89
2023-02-19T23:16:23.799Z,10.89
2023-02-19T23:18:50.820Z,10.90
2023-02-19T23:21:19.068Z,10.90
2023-02-19T23:23:46.516Z,10.90
2023-02-19T23:26:14.578Z,10.88
2023-02-19T23:28:42.871Z,10.86
2023-02-19T23:31:10.566Z,10.82
2023-02-19T23:33:37.377Z,10.83
2023-02-19T23:36:05.342Z,10.83
2023-02-19T23:38:32.099Z,10.83
2023-02-19T23:40:59.211Z,10.83
2023-02-19T23:43:25.985Z,10.86
2023-02-19T23:45:52.887Z,10.88
2023-02-19T23:48:19.584Z,10.90
2023-02-19T23:50:46.314Z,10.91
2023-02-19T23:53:13.007Z,10.93
2023-02-19T23:55:39.759Z,10.92
2023-02-19T23:58:06.529Z,10.90
